Thursday, October 02, 2014
06:32 UTC
  |  Log In   |  Register Free
Airport Search:

Alpena County Regional Airport
(KAPN)

FAA data valid effective September 18, 2014 - November 13, 2014 (unless otherwise noted).

 
 
 
 
 
 
 
 
 
 
 
 
 
 

Current Aviation Weather for Alpena County Regional Airport (KAPN)

The most recent METAR observation for KAPN was updated at: 0540
METAR Summary (Translated METAR)
KAPN
020454Z AUTO 17005KT 2SM BR FEW019 12/12 A3003 RMK AO2 SLP173 T01170117 401500111
KPZQ
020535Z AUTO 15004KT 3SM BR SCT006 OVC019 13/13 A3003 RMK AO2 T01340134
(22.4 nm NW from KAPN)
KOSC
020534Z AUTO 00000KT 1/4SM FG OVC003 10/10 A3002 RMK AO2 T00980098
(38.3 nm SE from KAPN)
TAF Summary (Translated TAF)
KAPN
020540Z 0206/0306 17004KT 2SM BR BKN019 TEMPO 0209/0213 1/2SM FG SCT019 FM021500 15008KT 5SM BR OVC080 FM021700 15010KT P6SM -SHRA BKN022 OVC070
  Airport Weather Conditions for KAPN

 Current Weather at APN
53° F
Fog/Mist
South winds at 3.5 mph
APN NOAA Radar

Pressure: 30.02 in
Humidity: 96%
Wind: South at 3.5 MPH (3 KT)
Dew Point: 52.0°F
Visibility: 2.00 mi


Airport Weather Forecast for KAPN

Translated METAR and TAF for KAPN
Translated METAR for KAPN (0626 UTC 02 October 2014)
found at http://aviationweather.gov/adds/metars/
 
METAR text: KAPN 020607Z AUTO 14004KT 3/4SM BR VV009 11/11 A3002 RMK AO2 T01110111
Conditions at: KAPN (ALPENA , MI, US) observed 0607 UTC 02 October 2014
Temperature: 11.1°C (52°F)
Dewpoint: 11.1°C (52°F) [RH = 100%]
Pressure (altimeter): 30.02 inches Hg (1016.7 mb)
Winds: from the SE (140 degrees) at 5 MPH (4 knots; 2.1 m/s)
Visibility: 0.75 miles (1.21 km)
Ceiling: indefinite ceiling with vertical visibility of 900 feet AGL
Clouds: obscured sky
Weather: BR  (mist)
Translated TAF for KAPN
Forecast for: KAPN (ALPENA , MI, US)
TAF Text: KAPN 020540Z 0206/0306 17004KT 2SM BR BKN019
Forecast period: 0600 to 1500 UTC 02 October 2014
Forecast type: FROM: standard forecast or significant change
Winds: from the S (170 degrees) at 5 MPH (4 knots; 2.1 m/s)
Visibility: 2.00 miles (3.22 km)
Ceiling: 1900 feet AGL
Clouds: broken clouds at 1900 feet AGL
Weather: BR  (mist)
TAF Text: TEMPO 0209/0213 1/2SM FG SCT019
Forecast period: 0900 to 1300 UTC 02 October 2014
Forecast type: TEMPORARY: The following changes expected for less than half the time period
Visibility: 0.50 miles (0.80 km)
Clouds: scattered clouds at 1900 feet AGL
Weather: FG  (fog)
TAF Text: FM021500 15008KT 5SM BR OVC080
Forecast period: 1500 to 1700 UTC 02 October 2014
Forecast type: FROM: standard forecast or significant change
Winds: from the SSE (150 degrees) at 9 MPH (8 knots; 4.2 m/s)
Visibility: 5 miles (8 km)
Ceiling: 8000 feet AGL
Clouds: overcast cloud deck at 8000 feet AGL
Weather: BR  (mist)
TAF Text: FM021700 15010KT P6SM -SHRA BKN022 OVC070
Forecast period: 1700 UTC 02 October 2014 to 0600 UTC 03 October 2014
Forecast type: FROM: standard forecast or significant change
Winds: from the SSE (150 degrees) at 12 MPH (10 knots; 5.2 m/s)
Visibility: 6 or more miles (10+ km)
Ceiling: 2200 feet AGL
Clouds: broken clouds at 2200 feet AGL
overcast cloud deck at 7000 feet AGL
Weather: -SHRA  (light rain showers)

Find All Airport Services Find A Hotel Find A Rental Car Find A Golf Course Find A Restaurant $100 Hamburger



FBO's on the Field
FBO Company Facility Photos Services Transportation Aviation Fuel Prices: Prices include tax
Catering Weather Repair Courtesy Rental Type 100LL JetA JetA+ MOGAS 8087
 
Aviation Express Inc.

This FBO has not yet been rated
FS:Shell
Last Updated: Sep-05
Login to update fuel prices
SS:
Contact Aviation Express Inc.More FBO Information
 
Aviation North

This FBO has not yet been rated
FS:Avfuel
Last Updated: Sep-04
Login to update fuel prices
SS:
Contact Aviation NorthMore FBO Information
 
Add another FBO Facility Photos Catering Weather Repair Courtesy Rental Type 100LL JetA JetA+ MOGAS 8087
Services Transportation Aviation Fuel Prices: Prices include tax


model-print
model-print
model-print
model-print